Time;durP1;ratioP1;P1;durP2;ratioP2;P2;SDS_P1;SDS_P2;PMS_P1;PMS_P2;Temp;Humidity;BMP_temperature;BMP_pressure;BME280_temperature;BME280_humidity;BME280_pressure;Samples;Min_cycle;Max_cycle;Signal;HPM_P1;HPM_P2
2023/06/03 00:00:43;;;;;;;6.07;0.80;;;12.50;99.90;;;;;;4953381;28;20093;-78
2023/06/03 00:03:33;;;;;;;4.68;0.98;;;12.40;99.90;;;;;;4952200;29;20051;-77
2023/06/03 00:06:20;;;;;;;5.43;0.98;;;12.30;99.90;;;;;;4949715;29;20062;-77
2023/06/03 00:09:07;;;;;;;4.40;1.00;;;12.40;99.90;;;;;;4954376;28;20059;-76
2023/06/03 00:11:54;;;;;;;4.53;0.73;;;12.20;99.90;;;;;;4951188;28;20473;-77
2023/06/03 00:14:41;;;;;;;2.22;0.80;;;12.20;99.90;;;;;;4952307;28;20051;-77
2023/06/03 00:17:28;;;;;;;1.98;0.70;;;12.10;99.90;;;;;;4953039;28;20051;-77
2023/06/03 00:20:14;;;;;;;7.20;1.10;;;12.10;99.90;;;;;;4953524;28;20060;-77
2023/06/03 00:23:01;;;;;;;2.08;0.90;;;12.10;99.90;;;;;;4952999;29;20110;-78
2023/06/03 00:25:48;;;;;;;3.15;0.90;;;12.00;99.90;;;;;;4952424;28;20106;-78
2023/06/03 00:28:35;;;;;;;2.97;1.05;;;11.90;99.90;;;;;;4952561;28;20134;-78
2023/06/03 00:31:21;;;;;;;3.30;0.95;;;11.90;99.90;;;;;;4951813;29;20047;-78
2023/06/03 00:34:08;;;;;;;3.50;0.80;;;11.80;99.90;;;;;;4955537;29;20083;-77
2023/06/03 00:36:54;;;;;;;9.27;1.30;;;11.80;99.90;;;;;;4956232;28;20077;-78
2023/06/03 00:39:40;;;;;;;2.63;1.00;;;11.70;99.90;;;;;;4955841;28;20047;-77
2023/06/03 00:42:27;;;;;;;2.72;0.82;;;11.70;99.90;;;;;;4955629;28;20052;-78
2023/06/03 00:45:13;;;;;;;3.38;0.80;;;11.60;99.90;;;;;;4955958;28;20050;-78
2023/06/03 00:47:59;;;;;;;6.63;0.70;;;11.60;99.90;;;;;;4957213;28;20103;-77
2023/06/03 00:50:45;;;;;;;4.55;1.17;;;11.50;99.90;;;;;;4955766;29;20047;-77
2023/06/03 00:53:32;;;;;;;2.10;0.82;;;11.40;99.90;;;;;;4955583;28;20155;-77
2023/06/03 00:56:20;;;;;;;4.10;1.02;;;11.40;99.90;;;;;;4959354;28;20126;-76
2023/06/03 00:59:06;;;;;;;2.28;0.50;;;11.40;99.90;;;;;;4958198;28;20047;-77
2023/06/03 01:01:53;;;;;;;3.78;1.10;;;11.30;99.90;;;;;;4954917;28;20146;-77
2023/06/03 01:04:42;;;;;;;2.50;0.82;;;11.20;99.90;;;;;;4955376;28;20097;-79
2023/06/03 01:07:42;;;;;;;2.67;0.80;;;11.30;99.90;;;;;;4938357;29;20141;-77
2023/06/03 01:10:52;;;;;;;3.70;1.08;;;11.20;99.90;;;;;;4955361;28;20495;-78
2023/06/03 01:13:50;;;;;;;3.38;1.05;;;11.10;99.90;;;;;;4953871;28;20062;-78
2023/06/03 01:16:41;;;;;;;2.55;0.80;;;11.10;99.90;;;;;;4966770;28;20101;-78
2023/06/03 01:19:49;;;;;;;2.38;0.93;;;11.00;99.90;;;;;;4954611;28;20586;-78
2023/06/03 01:22:42;;;;;;;10.20;1.38;;;11.00;99.90;;;;;;4954440;29;20054;-78
2023/06/03 01:25:29;;;;;;;3.72;1.45;;;10.90;99.90;;;;;;4954341;28;20078;-77
2023/06/03 01:28:16;;;;;;;2.83;0.60;;;10.80;99.90;;;;;;4956529;28;20062;-77
2023/06/03 01:31:04;;;;;;;2.85;0.95;;;10.80;99.90;;;;;;4963085;28;20047;-79
2023/06/03 01:33:50;;;;;;;2.03;0.70;;;10.80;99.90;;;;;;4924922;29;20050;-79
2023/06/03 01:36:36;;;;;;;2.97;0.80;;;10.80;99.90;;;;;;4954143;28;20416;-78
2023/06/03 01:39:24;;;;;;;6.60;2.17;;;10.70;99.90;;;;;;4954453;29;20050;-78
2023/06/03 01:42:12;;;;;;;2.97;1.00;;;10.60;99.90;;;;;;4955403;28;20129;-79
2023/06/03 01:44:58;;;;;;;3.22;0.75;;;10.60;99.90;;;;;;4953748;28;20061;-77
2023/06/03 01:47:45;;;;;;;2.67;0.70;;;10.50;99.90;;;;;;4952756;29;20052;-78
2023/06/03 01:50:31;;;;;;;5.05;0.80;;;10.50;99.90;;;;;;4955422;28;20163;-77
2023/06/03 01:53:17;;;;;;;3.67;1.08;;;10.50;99.90;;;;;;4939325;29;20131;-78
2023/06/03 01:56:04;;;;;;;11.82;2.45;;;10.40;99.90;;;;;;4954833;28;20384;-78
2023/06/03 01:58:50;;;;;;;2.20;0.82;;;10.40;99.90;;;;;;4954184;28;20599;-75
2023/06/03 02:01:36;;;;;;;3.83;1.35;;;10.30;99.90;;;;;;4955740;28;20608;-76
2023/06/03 02:04:22;;;;;;;4.22;1.00;;;10.30;99.90;;;;;;4957952;28;20083;-76
2023/06/03 02:07:08;;;;;;;3.10;1.08;;;10.30;99.90;;;;;;4954773;29;20043;-77
2023/06/03 02:09:54;;;;;;;3.85;0.80;;;10.20;99.90;;;;;;4939682;29;20057;-77
2023/06/03 02:12:40;;;;;;;2.55;0.95;;;10.20;99.90;;;;;;4937735;28;20768;-78
2023/06/03 02:15:26;;;;;;;5.78;1.10;;;10.10;99.90;;;;;;4954330;28;20058;-77
2023/06/03 02:18:12;;;;;;;5.38;0.90;;;10.10;99.90;;;;;;4954608;28;20051;-78
2023/06/03 02:21:00;;;;;;;3.88;1.00;;;10.20;99.90;;;;;;4936145;28;20055;-77
2023/06/03 02:23:46;;;;;;;3.88;0.80;;;10.20;99.90;;;;;;4953132;29;20771;-77
2023/06/03 02:26:33;;;;;;;5.60;0.77;;;10.20;99.90;;;;;;4953596;28;20058;-78
2023/06/03 02:29:22;;;;;;;4.88;1.02;;;10.20;99.90;;;;;;4936242;29;20074;-77
2023/06/03 02:32:08;;;;;;;2.00;0.70;;;10.20;99.90;;;;;;4954613;28;20051;-76
2023/06/03 02:34:54;;;;;;;4.60;1.13;;;10.20;99.90;;;;;;4953739;28;20058;-76
2023/06/03 02:37:40;;;;;;;4.07;1.02;;;10.10;99.90;;;;;;4951499;29;20143;-77
2023/06/03 02:40:27;;;;;;;3.80;1.08;;;10.10;99.90;;;;;;4938087;28;20407;-76
2023/06/03 02:43:13;;;;;;;2.83;1.08;;;10.10;99.90;;;;;;4960333;28;20043;-76
2023/06/03 02:45:59;;;;;;;2.58;0.73;;;10.10;99.90;;;;;;4955271;29;20127;-77
2023/06/03 02:48:45;;;;;;;5.40;1.30;;;10.00;99.90;;;;;;4953309;29;20059;-77
2023/06/03 02:51:32;;;;;;;3.50;1.13;;;10.00;99.90;;;;;;4952827;29;20054;-77
2023/06/03 02:54:18;;;;;;;4.47;1.23;;;10.00;99.90;;;;;;4939185;29;20057;-76
2023/06/03 02:57:04;;;;;;;4.20;1.05;;;10.00;99.90;;;;;;4954007;28;20055;-76
2023/06/03 02:59:51;;;;;;;3.65;1.30;;;9.90;99.90;;;;;;4953239;28;20066;-76
2023/06/03 03:02:37;;;;;;;4.40;0.95;;;9.90;99.90;;;;;;4953954;28;20078;-77
2023/06/03 03:05:26;;;;;;;4.28;1.05;;;9.90;99.90;;;;;;4953776;28;20189;-77
2023/06/03 03:08:12;;;;;;;3.45;0.90;;;9.90;99.90;;;;;;4953734;28;20199;-77
2023/06/03 03:10:58;;;;;;;2.78;0.80;;;9.80;99.90;;;;;;4936669;29;20059;-77
2023/06/03 03:13:45;;;;;;;6.70;1.30;;;9.80;99.90;;;;;;4953027;29;20043;-78
2023/06/03 03:16:33;;;;;;;3.60;1.08;;;9.80;99.90;;;;;;4952858;28;20052;-77
2023/06/03 03:19:19;;;;;;;3.95;1.10;;;9.80;99.90;;;;;;4952806;28;20059;-77
2023/06/03 03:22:05;;;;;;;3.85;1.02;;;9.80;99.90;;;;;;4956425;29;20054;-76
2023/06/03 03:24:52;;;;;;;2.67;1.02;;;9.70;99.90;;;;;;4959922;28;20051;-76
2023/06/03 03:27:38;;;;;;;1.90;0.80;;;9.70;99.90;;;;;;4959697;29;20573;-76
2023/06/03 03:30:24;;;;;;;3.22;0.90;;;9.70;99.90;;;;;;4955483;29;20043;-77
2023/06/03 03:33:10;;;;;;;4.53;1.27;;;9.70;99.90;;;;;;4951889;29;20130;-78
2023/06/03 03:35:58;;;;;;;3.83;1.20;;;9.70;99.90;;;;;;4952977;28;20194;-77
2023/06/03 03:38:44;;;;;;;3.38;1.00;;;9.70;99.90;;;;;;4938678;29;20062;-78
2023/06/03 03:41:31;;;;;;;4.88;0.98;;;9.70;99.90;;;;;;4951584;29;20066;-77
2023/06/03 03:44:17;;;;;;;3.47;1.10;;;9.70;99.90;;;;;;4934713;29;20137;-77
2023/06/03 03:47:03;;;;;;;4.25;1.10;;;9.70;99.90;;;;;;4951749;29;20043;-76
2023/06/03 03:50:02;;;;;;;4.20;0.90;;;9.70;99.90;;;;;;4936398;29;20051;-78
2023/06/03 03:52:49;;;;;;;4.75;1.10;;;9.70;99.90;;;;;;4953420;29;20066;-78
2023/06/03 03:55:44;;;;;;;5.15;0.93;;;9.80;99.90;;;;;;4952311;28;20059;-78
2023/06/03 03:58:37;;;;;;;4.25;1.48;;;9.80;99.90;;;;;;4938663;28;20055;-78
2023/06/03 04:01:24;;;;;;;4.60;0.98;;;9.80;99.90;;;;;;4952719;29;20066;-78
2023/06/03 04:04:14;;;;;;;3.28;1.35;;;9.80;99.90;;;;;;4935951;28;20630;-78
2023/06/03 04:07:00;;;;;;;4.70;1.00;;;9.90;99.90;;;;;;4952559;28;20051;-78
2023/06/03 04:09:48;;;;;;;2.40;0.98;;;9.90;99.90;;;;;;4955160;28;20149;-78
2023/06/03 04:12:36;;;;;;;3.55;0.82;;;10.00;99.90;;;;;;4955881;28;20511;-77
2023/06/03 04:15:25;;;;;;;2.78;1.00;;;10.00;99.90;;;;;;4956597;28;20132;-78
2023/06/03 04:18:12;;;;;;;3.72;1.00;;;10.10;99.90;;;;;;4939156;29;20574;-77
2023/06/03 04:20:59;;;;;;;6.22;2.20;;;10.10;99.90;;;;;;4956395;28;20511;-78
2023/06/03 04:23:46;;;;;;;2.60;0.75;;;10.20;99.90;;;;;;4956492;28;20439;-80
2023/06/03 04:26:34;;;;;;;2.67;0.77;;;10.30;99.90;;;;;;4955762;29;20055;-75
2023/06/03 04:29:20;;;;;;;4.95;0.98;;;10.40;99.90;;;;;;4956607;28;20043;-75
2023/06/03 04:32:06;;;;;;;4.70;1.00;;;10.50;99.90;;;;;;4956458;28;20139;-75
2023/06/03 04:34:54;;;;;;;4.43;0.77;;;10.50;99.90;;;;;;4940733;29;20058;-76
2023/06/03 04:37:40;;;;;;;2.47;0.70;;;10.60;99.90;;;;;;4957479;28;20110;-79
2023/06/03 04:40:29;;;;;;;4.60;0.98;;;10.60;99.90;;;;;;4939358;29;20057;-77
2023/06/03 04:43:18;;;;;;;4.15;0.93;;;10.70;99.90;;;;;;4940692;29;20194;-77
2023/06/03 04:46:09;;;;;;;4.25;0.90;;;10.70;99.90;;;;;;4941821;29;20106;-77
2023/06/03 04:48:57;;;;;;;2.08;0.93;;;10.80;99.90;;;;;;4956477;28;20055;-77
2023/06/03 04:51:44;;;;;;;3.47;1.25;;;10.80;99.90;;;;;;4943642;29;20353;-78
2023/06/03 04:54:30;;;;;;;1.65;0.60;;;10.90;99.90;;;;;;4956321;28;20097;-78
2023/06/03 04:57:16;;;;;;;2.38;0.90;;;11.00;99.90;;;;;;4955000;29;20067;-76
2023/06/03 05:00:05;;;;;;;2.15;0.90;;;11.10;99.90;;;;;;4938376;29;20058;-77
2023/06/03 05:02:59;;;;;;;5.43;1.55;;;11.20;99.90;;;;;;4938184;29;20110;-77
2023/06/03 05:05:45;;;;;;;4.13;0.77;;;11.20;99.90;;;;;;4956529;28;20158;-77
2023/06/03 05:08:31;;;;;;;2.38;0.73;;;11.40;99.90;;;;;;4938073;29;20058;-76
2023/06/03 05:11:18;;;;;;;4.47;1.13;;;11.50;99.90;;;;;;4938522;28;20063;-78
2023/06/03 05:14:06;;;;;;;4.35;1.13;;;11.60;99.90;;;;;;4954754;28;20051;-77
2023/06/03 05:16:52;;;;;;;5.30;0.93;;;11.70;99.90;;;;;;4955161;29;20066;-77
2023/06/03 05:19:38;;;;;;;6.40;0.98;;;11.90;99.90;;;;;;4938874;28;20094;-78
2023/06/03 05:22:24;;;;;;;2.45;1.02;;;12.00;99.90;;;;;;4955741;29;20090;-77
2023/06/03 05:25:12;;;;;;;2.92;0.88;;;12.10;99.90;;;;;;4959373;29;20490;-77
2023/06/03 05:27:58;;;;;;;2.92;0.88;;;12.30;99.90;;;;;;4962007;28;20047;-77
2023/06/03 05:30:44;;;;;;;3.28;1.05;;;12.40;99.90;;;;;;4962792;28;20090;-77
2023/06/03 05:33:31;;;;;;;4.13;1.15;;;12.50;99.90;;;;;;4960693;29;20048;-77
2023/06/03 05:36:17;;;;;;;8.68;2.17;;;12.70;99.90;;;;;;4960098;28;20066;-76
2023/06/03 05:39:04;;;;;;;2.85;0.85;;;12.80;99.90;;;;;;4959006;29;20054;-76
2023/06/03 05:41:50;;;;;;;1.65;0.60;;;12.90;99.90;;;;;;4961648;28;20055;-77
2023/06/03 05:44:37;;;;;;;4.43;1.10;;;13.10;99.90;;;;;;4958618;28;20059;-76
2023/06/03 05:47:23;;;;;;;5.30;0.93;;;13.20;99.90;;;;;;4956152;29;20059;-77
2023/06/03 05:50:09;;;;;;;4.15;0.88;;;13.30;99.90;;;;;;4958326;28;20057;-77
2023/06/03 05:52:56;;;;;;;2.92;1.00;;;13.50;99.90;;;;;;4927339;29;20055;-76
2023/06/03 05:55:43;;;;;;;4.70;1.08;;;13.70;99.90;;;;;;4955810;29;20047;-77
2023/06/03 05:58:29;;;;;;;3.55;0.90;;;13.80;99.90;;;;;;4955664;28;20061;-77
2023/06/03 06:01:15;;;;;;;6.35;1.10;;;14.00;99.90;;;;;;4955621;28;20043;-77
2023/06/03 06:04:02;;;;;;;3.00;1.00;;;14.10;99.90;;;;;;4938745;28;20094;-76
2023/06/03 06:06:48;;;;;;;4.10;0.82;;;14.30;99.70;;;;;;4939110;28;20051;-78
2023/06/03 06:09:34;;;;;;;4.63;1.20;;;14.30;99.40;;;;;;4955428;28;20098;-77
2023/06/03 06:12:20;;;;;;;3.85;0.90;;;14.40;99.20;;;;;;4954129;28;20059;-78
2023/06/03 06:15:07;;;;;;;4.53;0.55;;;14.70;99.20;;;;;;4954143;28;20050;-79
2023/06/03 06:17:53;;;;;;;2.03;0.68;;;14.90;99.00;;;;;;4954837;28;20059;-79
2023/06/03 06:20:39;;;;;;;5.07;0.85;;;15.10;98.50;;;;;;4954485;28;20518;-77
2023/06/03 06:23:26;;;;;;;4.65;1.85;;;15.10;98.10;;;;;;4954412;29;20073;-76
2023/06/03 06:26:14;;;;;;;5.05;1.27;;;15.00;98.30;;;;;;4939140;29;20122;-76
2023/06/03 06:29:00;;;;;;;4.15;0.73;;;15.00;97.80;;;;;;4958211;29;20047;-77
2023/06/03 06:31:48;;;;;;;4.15;1.02;;;14.90;97.70;;;;;;4952234;28;20062;-77
2023/06/03 06:34:34;;;;;;;5.47;1.20;;;14.80;97.90;;;;;;4954003;28;20113;-78
2023/06/03 06:37:21;;;;;;;3.30;1.10;;;14.90;98.00;;;;;;4952730;28;20061;-78
2023/06/03 06:40:10;;;;;;;3.53;0.70;;;14.70;98.00;;;;;;4936517;29;20491;-78
2023/06/03 06:42:57;;;;;;;2.30;0.60;;;14.70;98.20;;;;;;4954822;28;20079;-78
2023/06/03 06:45:43;;;;;;;5.72;0.93;;;14.80;98.50;;;;;;4953912;28;20051;-78
2023/06/03 06:48:33;;;;;;;2.67;0.98;;;14.80;98.50;;;;;;4952722;28;20151;-78
2023/06/03 06:51:19;;;;;;;2.33;0.80;;;14.80;98.50;;;;;;4953867;28;20117;-77
2023/06/03 06:54:05;;;;;;;3.10;0.80;;;14.80;98.30;;;;;;4937150;29;20562;-76
2023/06/03 06:56:51;;;;;;;2.70;0.80;;;14.80;98.40;;;;;;4953667;28;20146;-77
2023/06/03 06:59:38;;;;;;;5.80;0.85;;;14.80;98.40;;;;;;4956988;28;20055;-77
2023/06/03 07:02:25;;;;;;;4.10;1.10;;;14.80;98.50;;;;;;4954406;28;20074;-78
2023/06/03 07:05:11;;;;;;;2.85;0.88;;;14.90;98.60;;;;;;4936524;29;20058;-77
2023/06/03 07:07:57;;;;;;;3.40;1.13;;;15.00;98.40;;;;;;4951923;29;20063;-77
2023/06/03 07:10:44;;;;;;;3.72;1.00;;;15.10;98.50;;;;;;4935866;29;20062;-79
2023/06/03 07:13:30;;;;;;;4.43;0.88;;;15.30;98.50;;;;;;4952484;29;20389;-76
2023/06/03 07:16:16;;;;;;;2.88;0.90;;;15.60;98.50;;;;;;4950803;28;20496;-78
2023/06/03 07:19:04;;;;;;;5.13;0.90;;;15.70;97.90;;;;;;4935597;28;20055;-77
2023/06/03 07:21:52;;;;;;;4.53;0.68;;;15.90;97.20;;;;;;4952376;29;20147;-78
2023/06/03 07:24:39;;;;;;;4.18;1.00;;;16.10;96.90;;;;;;4953311;28;20055;-77
2023/06/03 07:27:29;;;;;;;2.40;0.90;;;16.20;96.60;;;;;;4939611;29;20137;-78
2023/06/03 07:30:16;;;;;;;4.15;0.80;;;16.50;96.40;;;;;;4954503;28;20801;-78
2023/06/03 07:33:05;;;;;;;3.72;0.75;;;16.70;95.80;;;;;;4940695;29;20134;-77
2023/06/03 07:35:56;;;;;;;3.95;0.73;;;16.90;95.00;;;;;;4956463;28;20404;-76
2023/06/03 07:39:02;;;;;;;3.28;0.73;;;17.30;94.90;;;;;;4938899;29;20529;-78
2023/06/03 07:41:51;;;;;;;2.97;0.90;;;17.50;94.30;;;;;;4951927;28;20130;-78
2023/06/03 07:44:43;;;;;;;3.85;0.80;;;17.80;93.50;;;;;;4951525;28;20534;-78
2023/06/03 07:47:29;;;;;;;6.72;1.10;;;18.10;92.60;;;;;;4952542;28;20057;-78
2023/06/03 07:50:22;;;;;;;2.13;0.60;;;18.40;92.20;;;;;;4952310;28;20495;-78
2023/06/03 07:53:08;;;;;;;4.15;0.77;;;18.60;91.50;;;;;;4952388;29;20422;-78
2023/06/03 07:55:54;;;;;;;2.35;0.52;;;18.80;90.60;;;;;;4952610;29;20051;-79
2023/06/03 07:58:41;;;;;;;2.50;0.80;;;19.00;90.00;;;;;;4952186;28;20051;-77
2023/06/03 08:01:27;;;;;;;1.90;0.60;;;19.20;89.00;;;;;;4953436;28;20464;-77
2023/06/03 08:04:32;;;;;;;1.77;0.65;;;19.40;87.90;;;;;;4939172;29;20494;-78
2023/06/03 08:07:19;;;;;;;2.35;0.90;;;19.60;84.20;;;;;;4938196;29;20052;-78
2023/06/03 08:10:15;;;;;;;4.72;1.30;;;19.80;86.70;;;;;;4922017;29;20047;-78
2023/06/03 08:13:02;;;;;;;3.58;0.93;;;19.90;84.30;;;;;;4951977;28;20051;-78
2023/06/03 08:15:49;;;;;;;3.25;0.73;;;20.20;83.40;;;;;;4952236;28;20055;-78
2023/06/03 08:18:50;;;;;;;8.02;1.88;;;20.40;82.70;;;;;;4952147;29;20078;-77
2023/06/03 08:21:37;;;;;;;2.75;0.60;;;20.50;76.00;;;;;;4919238;29;20044;-78
2023/06/03 08:24:23;;;;;;;2.65;0.60;;;20.70;78.90;;;;;;4932495;28;20496;-79
2023/06/03 08:27:10;;;;;;;7.47;0.70;;;20.70;77.60;;;;;;4916169;29;20419;-79
2023/06/03 08:29:57;;;;;;;4.45;0.70;;;20.90;77.10;;;;;;4904394;29;20051;-78
2023/06/03 08:32:47;;;;;;;3.47;0.80;;;21.00;74.50;;;;;;4916393;29;20052;-78
2023/06/03 08:35:33;;;;;;;4.25;0.70;;;21.10;73.10;;;;;;4934657;29;20058;-78
2023/06/03 08:38:20;;;;;;;6.50;1.00;;;21.30;74.10;;;;;;4920995;29;20083;-79
2023/06/03 08:41:07;;;;;;;4.30;0.95;;;21.40;73.50;;;;;;4917977;29;20166;-78
2023/06/03 08:44:13;;;;;;;5.45;1.10;;;21.70;72.80;;;;;;4931647;29;20051;-78
2023/06/03 08:47:08;;;;;;;2.50;0.70;;;21.90;68.60;;;;;;4933079;28;20094;-78
2023/06/03 08:50:03;;;;;;;2.13;0.60;;;21.90;68.90;;;;;;4932115;29;20051;-77
2023/06/03 08:52:52;;;;;;;1.70;0.60;;;22.00;68.10;;;;;;4933834;29;20456;-77
2023/06/03 08:55:39;;;;;;;3.45;0.80;;;22.00;65.50;;;;;;4937960;28;20071;-78
2023/06/03 08:58:35;;;;;;;8.00;0.90;;;22.00;66.70;;;;;;4937925;28;20150;-78
2023/06/03 09:01:35;;;;;;;3.97;0.70;;;22.30;64.90;;;;;;4937266;28;20043;-77
2023/06/03 09:04:21;;;;;;;3.08;1.00;;;22.10;60.60;;;;;;4936480;28;20064;-78
2023/06/03 09:07:10;;;;;;;2.38;0.60;;;22.10;64.00;;;;;;4937249;28;20066;-78
2023/06/03 09:09:58;;;;;;;2.47;0.50;;;22.10;65.90;;;;;;4922207;28;20055;-78
2023/06/03 09:12:46;;;;;;;3.97;0.90;;;22.40;67.10;;;;;;4928298;29;20047;-78
2023/06/03 09:15:32;;;;;;;3.30;0.80;;;22.70;68.90;;;;;;4937146;28;20055;-78
2023/06/03 09:18:18;;;;;;;5.28;1.65;;;22.80;69.10;;;;;;4937603;28;20393;-78
2023/06/03 09:21:09;;;;;;;1.65;0.57;;;22.90;69.60;;;;;;4954613;28;20047;-78
2023/06/03 09:23:56;;;;;;;1.27;0.50;;;23.10;70.20;;;;;;4955352;28;20055;-78
2023/06/03 09:26:43;;;;;;;2.70;0.77;;;23.10;67.90;;;;;;4955827;28;20408;-78
2023/06/03 09:29:29;;;;;;;3.17;1.00;;;23.20;69.40;;;;;;4954940;29;20121;-79
2023/06/03 09:32:15;;;;;;;4.03;0.90;;;23.40;68.40;;;;;;4957741;28;20199;-78
2023/06/03 09:35:05;;;;;;;3.58;0.80;;;23.40;69.20;;;;;;4939234;29;20055;-79
2023/06/03 09:38:04;;;;;;;3.28;0.80;;;23.50;69.40;;;;;;4939914;29;20059;-79
2023/06/03 09:40:50;;;;;;;1.65;0.60;;;23.60;68.40;;;;;;4956137;28;20047;-79
2023/06/03 09:43:36;;;;;;;2.30;0.82;;;23.90;69.90;;;;;;4940161;29;20086;-78
2023/06/03 09:46:24;;;;;;;4.57;0.82;;;23.90;68.60;;;;;;4953762;29;20066;-78
2023/06/03 09:49:16;;;;;;;3.75;0.90;;;24.10;68.00;;;;;;4955380;28;20142;-79
2023/06/03 09:52:07;;;;;;;2.65;0.73;;;23.90;67.30;;;;;;4955381;28;20093;-79
2023/06/03 09:55:04;;;;;;;2.28;0.80;;;24.20;68.50;;;;;;4957646;28;20496;-79
2023/06/03 09:58:08;;;;;;;4.00;0.70;;;24.40;65.10;;;;;;4954768;29;20422;-80
2023/06/03 10:00:56;;;;;;;2.60;0.73;;;24.30;62.60;;;;;;4940682;29;20098;-80
2023/06/03 10:03:58;;;;;;;6.30;1.27;;;24.40;64.40;;;;;;4941161;29;20059;-79
2023/06/03 10:06:45;;;;;;;2.10;0.75;;;24.30;67.20;;;;;;4954185;28;20376;-78
2023/06/03 10:09:31;;;;;;;3.80;0.70;;;24.40;67.60;;;;;;4954753;29;20047;-79
2023/06/03 10:12:31;;;;;;;2.00;0.70;;;24.30;66.00;;;;;;4954167;29;20063;-78
2023/06/03 10:15:36;;;;;;;4.57;1.08;;;24.30;65.90;;;;;;4959255;28;20151;-78
2023/06/03 10:18:49;;;;;;;3.65;0.82;;;24.20;67.70;;;;;;4953731;28;20114;-78
2023/06/03 10:21:37;;;;;;;6.13;1.48;;;24.40;67.70;;;;;;4935752;29;20066;-77
2023/06/03 10:24:27;;;;;;;2.33;0.68;;;24.60;64.90;;;;;;4936918;28;20057;-79
2023/06/03 10:27:15;;;;;;;5.85;1.85;;;24.70;61.70;;;;;;4936097;28;20055;-77
2023/06/03 10:30:03;;;;;;;3.10;0.80;;;24.70;64.00;;;;;;4936591;28;20142;-78
2023/06/03 10:32:49;;;;;;;3.85;0.70;;;24.60;64.10;;;;;;4934771;28;20102;-77
2023/06/03 10:35:37;;;;;;;4.65;0.80;;;24.70;65.30;;;;;;4936178;28;20090;-78
2023/06/03 10:38:24;;;;;;;4.50;0.80;;;24.70;65.60;;;;;;4935863;29;20059;-78
2023/06/03 10:41:12;;;;;;;4.38;0.98;;;24.60;64.50;;;;;;4937007;28;20102;-78
2023/06/03 10:43:58;;;;;;;4.35;0.80;;;24.60;65.00;;;;;;4922191;29;20423;-78
2023/06/03 10:46:50;;;;;;;5.72;1.10;;;24.50;64.90;;;;;;4936461;28;20059;-78
2023/06/03 10:49:45;;;;;;;2.83;1.10;;;24.50;64.40;;;;;;4918853;28;20091;-78
2023/06/03 10:52:57;;;;;;;3.72;0.80;;;24.50;63.80;;;;;;4934146;29;20138;-78
2023/06/03 10:55:58;;;;;;;3.05;0.70;;;24.70;61.50;;;;;;4934520;29;20611;-78
2023/06/03 10:58:47;;;;;;;4.57;1.08;;;25.10;63.90;;;;;;4933229;29;20059;-78
2023/06/03 11:01:58;;;;;;;3.60;0.80;;;25.20;61.90;;;;;;4934622;29;20056;-78
2023/06/03 11:04:44;;;;;;;3.08;1.35;;;25.20;59.80;;;;;;4935042;28;20066;-78
2023/06/03 11:07:31;;;;;;;3.92;0.60;;;25.40;60.80;;;;;;4920205;29;20055;-78
2023/06/03 11:10:39;;;;;;;2.40;0.85;;;25.60;60.40;;;;;;4934787;29;20054;-78
2023/06/03 11:13:41;;;;;;;2.00;0.50;;;25.50;56.20;;;;;;4934757;28;20526;-78
2023/06/03 11:16:27;;;;;;;2.63;0.70;;;25.70;56.20;;;;;;4917157;29;20048;-78
2023/06/03 11:19:45;;;;;;;1.90;0.60;;;25.40;56.90;;;;;;4920346;28;20138;-78
2023/06/03 11:22:31;;;;;;;3.13;0.80;;;25.60;56.00;;;;;;4928556;29;20054;-79
2023/06/03 11:25:27;;;;;;;3.67;0.85;;;25.50;56.80;;;;;;4954835;28;20086;-77
2023/06/03 11:28:35;;;;;;;5.30;0.73;;;25.70;57.20;;;;;;4936673;28;20061;-78
2023/06/03 11:31:21;;;;;;;2.53;0.60;;;25.80;55.90;;;;;;4953211;28;20055;-78
2023/06/03 11:34:23;;;;;;;4.30;0.88;;;25.80;55.70;;;;;;4938131;29;20040;-78
2023/06/03 11:37:11;;;;;;;3.78;0.82;;;25.70;55.50;;;;;;4953489;28;20058;-78
2023/06/03 11:40:08;;;;;;;4.18;0.55;;;25.90;55.40;;;;;;4953652;28;20051;-77
2023/06/03 11:42:54;;;;;;;4.03;0.50;;;26.30;55.90;;;;;;4952218;28;20503;-79
2023/06/03 11:45:41;;;;;;;2.53;0.50;;;26.20;55.60;;;;;;4952939;28;20562;-78
2023/06/03 11:48:36;;;;;;;2.25;0.80;;;26.30;55.40;;;;;;4956079;29;20047;-79
2023/06/03 11:51:27;;;;;;;6.10;0.70;;;26.70;56.50;;;;;;4958234;28;20051;-78
2023/06/03 11:54:13;;;;;;;4.50;0.70;;;26.70;55.90;;;;;;4953598;28;20055;-78
2023/06/03 11:56:59;;;;;;;2.50;0.80;;;26.50;54.80;;;;;;4953225;28;20103;-79
2023/06/03 11:59:51;;;;;;;3.92;0.65;;;26.20;55.30;;;;;;4935828;29;20055;-77
2023/06/03 12:02:38;;;;;;;3.25;0.90;;;26.40;56.00;;;;;;4953192;28;20091;-77
2023/06/03 12:05:24;;;;;;;3.40;1.05;;;26.30;56.10;;;;;;4953269;28;20047;-78
2023/06/03 12:08:10;;;;;;;2.45;0.70;;;26.50;54.20;;;;;;4966774;28;20479;-78
2023/06/03 12:10:57;;;;;;;3.22;1.02;;;26.80;54.70;;;;;;4952938;28;20047;-78
2023/06/03 12:13:43;;;;;;;3.00;0.50;;;26.80;53.90;;;;;;4952355;28;20066;-78
2023/06/03 12:16:36;;;;;;;3.25;0.52;;;27.10;53.30;;;;;;4935553;28;20066;-78
2023/06/03 12:19:23;;;;;;;3.30;0.68;;;27.30;52.00;;;;;;4951282;28;20067;-78
2023/06/03 12:22:09;;;;;;;2.92;0.80;;;27.10;51.80;;;;;;4952935;28;20052;-78
2023/06/03 12:24:56;;;;;;;4.10;0.50;;;27.50;51.20;;;;;;4957714;28;20043;-78
2023/06/03 12:27:42;;;;;;;4.75;0.73;;;27.40;51.00;;;;;;4935917;28;20491;-78
2023/06/03 12:30:33;;;;;;;3.22;0.63;;;27.60;49.80;;;;;;4955255;29;20452;-78
2023/06/03 12:33:19;;;;;;;3.08;0.70;;;27.40;48.00;;;;;;4956513;28;20054;-76
2023/06/03 12:36:06;;;;;;;3.42;0.70;;;27.30;48.20;;;;;;4955029;29;20393;-77
2023/06/03 12:38:56;;;;;;;3.63;1.17;;;27.30;48.10;;;;;;4955902;29;20057;-77
2023/06/03 12:41:53;;;;;;;5.38;0.70;;;27.60;48.20;;;;;;4955471;29;20053;-77
2023/06/03 12:44:44;;;;;;;1.70;0.50;;;27.80;47.00;;;;;;4956407;28;20109;-77
2023/06/03 12:47:46;;;;;;;4.75;1.05;;;27.80;46.70;;;;;;4955856;29;20099;-77
2023/06/03 12:50:34;;;;;;;1.98;0.60;;;27.80;46.50;;;;;;4959222;28;20082;-77
2023/06/03 12:53:21;;;;;;;5.78;0.70;;;27.60;46.90;;;;;;4956084;28;20103;-78
2023/06/03 12:56:07;;;;;;;2.22;0.60;;;27.60;47.00;;;;;;4954513;29;20492;-78
2023/06/03 12:58:56;;;;;;;2.28;0.60;;;27.70;47.60;;;;;;4955168;28;20094;-78
2023/06/03 13:01:42;;;;;;;3.40;0.75;;;28.00;47.00;;;;;;4938631;29;20414;-78
2023/06/03 13:04:28;;;;;;;1.25;0.50;;;27.90;47.30;;;;;;4938678;29;20059;-77
2023/06/03 13:07:14;;;;;;;3.60;0.88;;;27.90;47.60;;;;;;4955897;28;20134;-78
2023/06/03 13:10:01;;;;;;;3.47;0.50;;;28.10;47.10;;;;;;4938517;29;20086;-77
2023/06/03 13:12:47;;;;;;;2.30;0.70;;;28.10;45.70;;;;;;4955105;28;20069;-77
2023/06/03 13:15:34;;;;;;;2.22;0.68;;;28.20;46.00;;;;;;4955875;28;20145;-78
2023/06/03 13:18:21;;;;;;;3.33;0.70;;;28.40;46.40;;;;;;4927079;29;20388;-78
2023/06/03 13:21:07;;;;;;;2.83;0.60;;;28.20;44.80;;;;;;4955364;28;20059;-78
2023/06/03 13:23:53;;;;;;;4.78;0.70;;;28.40;45.50;;;;;;4955301;29;20102;-78
2023/06/03 13:26:39;;;;;;;2.38;0.63;;;28.90;45.00;;;;;;4953895;29;20055;-78
2023/06/03 13:29:25;;;;;;;2.70;0.50;;;28.60;44.30;;;;;;4953670;28;20134;-78
2023/06/03 13:32:12;;;;;;;6.30;1.00;;;28.80;44.90;;;;;;4955490;28;20039;-78
2023/06/03 13:34:59;;;;;;;3.10;0.80;;;29.10;44.90;;;;;;4954929;29;20066;-78
2023/06/03 13:37:45;;;;;;;1.20;0.50;;;29.30;44.70;;;;;;4953629;29;20058;-78
2023/06/03 13:40:31;;;;;;;2.45;0.63;;;29.30;43.90;;;;;;4953660;28;20051;-78
2023/06/03 13:43:17;;;;;;;2.53;0.57;;;29.40;43.30;;;;;;4955968;28;20146;-78
2023/06/03 13:46:03;;;;;;;3.67;0.90;;;29.40;42.50;;;;;;4954100;28;20055;-79
2023/06/03 13:48:49;;;;;;;2.47;0.60;;;29.60;43.30;;;;;;4956274;29;20051;-77
2023/06/03 13:51:37;;;;;;;3.10;0.60;;;29.60;42.80;;;;;;4955313;28;20058;-78
2023/06/03 13:54:23;;;;;;;4.43;0.68;;;29.70;42.50;;;;;;4952811;29;20063;-78
2023/06/03 13:57:09;;;;;;;2.72;0.93;;;29.80;42.60;;;;;;4956118;28;20051;-78
2023/06/03 13:59:55;;;;;;;3.10;0.65;;;29.60;41.80;;;;;;4954116;29;20570;-76
2023/06/03 14:02:41;;;;;;;5.07;0.50;;;29.20;41.80;;;;;;4953581;28;20381;-78
2023/06/03 14:05:27;;;;;;;4.18;0.80;;;29.70;42.40;;;;;;4955448;28;20051;-78
2023/06/03 14:08:13;;;;;;;3.08;0.90;;;29.70;41.50;;;;;;4953238;29;20166;-78
2023/06/03 14:11:00;;;;;;;3.33;0.50;;;30.00;40.80;;;;;;4956421;28;20151;-78
2023/06/03 14:13:46;;;;;;;3.83;0.80;;;30.30;41.00;;;;;;4958366;28;20122;-77
2023/06/03 14:16:32;;;;;;;4.68;0.70;;;30.60;41.00;;;;;;4957944;28;20054;-76
2023/06/03 14:19:18;;;;;;;2.67;0.50;;;30.80;41.00;;;;;;4957620;28;20110;-78
2023/06/03 14:22:05;;;;;;;3.00;0.55;;;31.10;40.50;;;;;;4956274;28;20051;-78
2023/06/03 14:24:51;;;;;;;3.28;0.63;;;31.00;40.60;;;;;;4954736;28;20134;-77
2023/06/03 14:27:37;;;;;;;2.70;0.70;;;31.00;40.70;;;;;;4953955;28;20043;-77
2023/06/03 14:30:23;;;;;;;2.28;0.50;;;31.10;40.70;;;;;;4956045;28;20118;-78
2023/06/03 14:33:09;;;;;;;4.22;0.50;;;31.10;40.00;;;;;;4937717;28;20047;-78
2023/06/03 14:35:55;;;;;;;3.15;0.47;;;30.90;39.90;;;;;;4939760;29;20043;-78
2023/06/03 14:38:41;;;;;;;3.55;0.75;;;30.90;40.10;;;;;;4937643;28;20103;-76